Warning: Javascript must be enabled to use all the features on this page!


Page Loading - Please Wait...

Click to hideNews Bulletins

Peak Streamflow for South Dakota

Click to hide state-specific text

USGS 06446000 WHITE R NEAR OGLALA SD

Oglala Lakota County, South Dakota
Hydrologic Unit Code 10140201
Latitude  43°15'17.5", Longitude 102°49'36.8" NAD27
Drainage area 2,156  square miles
Contributing drainage area 2,156  square miles
Gage datum 2,855.11 feet above NAVD88
Output formats
Table
Graph
Tab-separated file
peakfq (watstore) format
Reselect output format
Water
Year
Date Gage
Height
(feet)
Stream-
flow
(cfs)
1944 1944-06-14 17.12 1,370
1945 1945-03-26 13.68 968
1946 1946-05-03 14.32 1,040
1947 1947-06-21 23.50 5,200
1948 1948-08-09 13.162 832
1949 1949-03-04 20.602 2,670
1950 1950-05-10 10.50 455
1951 1951-07-30 12.63 733
1952 1952-03-31 10.422 513
1953 1953-03-14 13.992 830
1954 1954-05-26 12.05 672
1955 1955-09-21 19.19 2,110
1956 1956-05-30 10.642 510
1957 1957-06-12 20.14 2,330
1958 1958-07-13 12.98 750
1959 1959-09-28 7.882 249
1960 1960-03-23 16.422 1,210
1961 1961-07-22 9.08 355
1962 1962-06-14 21.73 2,720
1963 1963-06-16 17.97 1,560
1964 1964-06-18 9.63 443
1965 1965-05-15 14.13 924
1966 1966-03-12 19.061 1,830
1967 1967-06-16 23.61 3,270
1968 1968-06-09 15.49 997
1969 1969-07-17 19.38 1,760
1970 1970-04-25 13.82 809
1971 1971-05-25 16.88 1,300
1972 1972-05-12 8.82 278
1973 1973-04-23 9.78 367
1974 1974-04-14 11.02 481
1975 1975-06-22 13.64 776
1976 1976-05-27 10.432 405
1977 1977-04-14 11.912 630
1978 1978-03-14 18.16 1,520
1979 1979-08-21 13.79 789
1980 1980-06-16 12.74 671
1981 1981-07-22 9.07 319
1982 1982-05-15 17.28 1,330
1983 1983-05-19 14.42 938
1984 1984-05-03 11.44 515
1985 1985-03-23 6.852 120
1986 1986-06-10 20.78 2,860
1987 1987-04-06 16.91 1,330
1988 1988-05-22 14.51 950
1989 1989-03-14 8.64 243
1990 1990-07-26 6.15 121
1991 1991-06-07 17.65 1,530
1992 1992-06-28 11.36 552
1993 1993-06-08 19.48 2,190
1994 1994-02-19 17.401 1,4502
1995 1995-06-10 18.841 1,940
1996 1996-05-29 14.82 994
1997 1997-06-03 20.72 2,820
1998 1998-04-01 10.43 427
1999 1999-06-15 18.23 1,520
2000 2000-04-23 20.32 2,230
2001 2001-03-05 18.781 1,0002
2002 2002-04-03 9.021 266
2003 2003-05-13 7.91 179
2004 2004-09-05 10.99 456
2005 2005-06-15 16.35 1,060
2006 2006-03-06 7.071 120
2007 2007-04-09 5.59 52.02
2008 2008-06-03 11.92 565
2009 2009-04-13 12.73 671
2010 2010-03-04 18.101 1,180
2011 2011-05-21 18.72 1,700
2012 2012-03-10 7.311,2 125
2013 2013-06-22 9.18 302
2014 2013-10-16 19.17 1,850
2015 2015-05-16 22.65 6,920
2016 2016-05-04 11.341 444
2017 2017-05-24 11.742 512
2018 2018-05-29 14.99 900
2019 2019-03-22 21.95 6,400
2020 2020-03-02 14.911 7152
2021 2021-03-25 7.732 166
?
  Peak Gage-Height Qualification Codes.
?
  Peak Streamflow Qualification Codes.